Time;durP1;ratioP1;P1;durP2;ratioP2;P2;SDS_P1;SDS_P2;PMS_P1;PMS_P2;Temp;Humidity;BMP_temperature;BMP_pressure;BME280_temperature;BME280_humidity;BME280_pressure;Samples;Min_cycle;Max_cycle;Signal;HPM_P1;HPM_P2
2022/10/04 00:00:56;;;;;;;21.37;8.67;;;;;;;;;;5039829;28;20533;-64
2022/10/04 00:03:25;;;;;;;23.02;9.00;;;;;;;;;;5039550;28;20961;-63
2022/10/04 00:05:53;;;;;;;23.30;8.55;;;;;;;;;;5013072;28;20036;-63
2022/10/04 00:08:37;;;;;;;24.35;10.77;;;;;;;;;;5040536;28;20129;-63
2022/10/04 00:11:26;;;;;;;22.75;10.98;;;;;;;;;;5038526;28;20036;-63
2022/10/04 00:13:54;;;;;;;22.50;10.20;;;;;;;;;;5031791;28;20035;-63
2022/10/04 00:16:27;;;;;;;25.80;12.98;;;;;;;;;;5037188;28;20029;-64
2022/10/04 00:19:00;;;;;;;21.05;11.80;;;;;;;;;;5034680;28;20119;-63
2022/10/04 00:21:45;;;;;;;24.25;11.45;;;;;;;;;;5040017;28;20032;-64
2022/10/04 00:24:19;;;;;;;22.77;11.65;;;;;;;;;;5038369;28;20036;-63
2022/10/04 00:26:46;;;;;;;28.58;11.25;;;;;;;;;;5053922;28;20036;-63
2022/10/04 00:29:31;;;;;;;24.77;11.68;;;;;;;;;;5020812;28;20040;-63
2022/10/04 00:32:11;;;;;;;26.20;11.90;;;;;;;;;;5039145;28;20055;-64
2022/10/04 00:34:50;;;;;;;25.33;11.43;;;;;;;;;;5039223;28;20040;-64
2022/10/04 00:37:16;;;;;;;23.17;10.70;;;;;;;;;;5037664;28;20036;-64
2022/10/04 00:39:42;;;;;;;23.65;12.05;;;;;;;;;;5053470;28;20039;-64
2022/10/04 00:42:08;;;;;;;25.38;11.00;;;;;;;;;;5038303;28;20171;-64
2022/10/04 00:44:52;;;;;;;26.05;10.68;;;;;;;;;;5037240;28;20036;-63
2022/10/04 00:47:21;;;;;;;23.10;10.32;;;;;;;;;;5039326;28;20048;-63
2022/10/04 00:49:48;;;;;;;24.77;8.82;;;;;;;;;;5039200;28;20036;-63
2022/10/04 00:52:17;;;;;;;21.88;9.25;;;;;;;;;;5040356;28;20062;-64
2022/10/04 00:54:49;;;;;;;24.15;10.00;;;;;;;;;;5039864;28;20049;-64
2022/10/04 00:57:27;;;;;;;29.67;10.25;;;;;;;;;;5046497;28;20090;-63
2022/10/04 00:59:54;;;;;;;20.33;10.43;;;;;;;;;;5045412;28;20032;-64
2022/10/04 01:02:25;;;;;;;30.10;11.05;;;;;;;;;;5045181;28;20028;-63
2022/10/04 01:04:50;;;;;;;28.42;11.05;;;;;;;;;;5044984;28;20043;-64
2022/10/04 01:07:21;;;;;;;28.83;10.80;;;;;;;;;;5045547;28;20028;-63
2022/10/04 01:09:53;;;;;;;30.08;11.63;;;;;;;;;;5045087;28;20036;-65
2022/10/04 01:12:26;;;;;;;29.17;13.30;;;;;;;;;;5046471;28;20948;-63
2022/10/04 01:15:01;;;;;;;24.27;12.20;;;;;;;;;;5044963;28;20075;-63
2022/10/04 01:17:26;;;;;;;25.95;12.15;;;;;;;;;;5022238;28;20036;-63
2022/10/04 01:19:52;;;;;;;25.95;13.75;;;;;;;;;;5045214;28;20048;-63
2022/10/04 01:22:32;;;;;;;26.83;12.70;;;;;;;;;;5046215;28;20834;-63
2022/10/04 01:24:57;;;;;;;22.77;11.32;;;;;;;;;;5044242;28;20037;-64
2022/10/04 01:27:34;;;;;;;24.08;13.00;;;;;;;;;;5044578;28;20116;-62
2022/10/04 01:30:00;;;;;;;24.05;13.77;;;;;;;;;;5036504;28;20066;-63
2022/10/04 01:32:25;;;;;;;28.17;11.50;;;;;;;;;;5045843;28;21181;-64
2022/10/04 01:34:54;;;;;;;24.33;10.77;;;;;;;;;;5036529;28;20143;-63
2022/10/04 01:37:19;;;;;;;22.17;9.80;;;;;;;;;;5046482;28;20740;-64
2022/10/04 01:39:45;;;;;;;19.80;8.90;;;;;;;;;;5059679;27;20038;-64
2022/10/04 01:42:22;;;;;;;24.83;12.30;;;;;;;;;;5045568;28;20036;-63
2022/10/04 01:44:56;;;;;;;22.25;10.20;;;;;;;;;;5060198;28;22317;-63
2022/10/04 01:47:40;;;;;;;33.50;10.32;;;;;;;;;;5044282;28;20069;-63
2022/10/04 01:50:12;;;;;;;23.02;9.70;;;;;;;;;;5019521;28;20740;-64
2022/10/04 01:52:42;;;;;;;25.92;10.38;;;;;;;;;;5045434;28;20090;-63
2022/10/04 01:55:18;;;;;;;22.98;9.88;;;;;;;;;;5045089;28;20036;-63
2022/10/04 01:57:47;;;;;;;30.38;9.45;;;;;;;;;;5044427;28;20067;-63
2022/10/04 02:00:14;;;;;;;27.20;10.93;;;;;;;;;;5042552;28;20040;-64
2022/10/04 02:02:51;;;;;;;28.23;9.63;;;;;;;;;;5046153;28;20058;-63
2022/10/04 02:05:18;;;;;;;23.85;10.20;;;;;;;;;;5043217;28;20051;-63
2022/10/04 02:07:45;;;;;;;21.75;10.77;;;;;;;;;;5042131;28;20043;-63
2022/10/04 02:10:14;;;;;;;27.25;11.02;;;;;;;;;;5041502;28;20077;-65
2022/10/04 02:12:42;;;;;;;35.67;12.13;;;;;;;;;;5041840;28;20126;-62
2022/10/04 02:15:08;;;;;;;29.65;11.80;;;;;;;;;;5055900;28;20036;-63
2022/10/04 02:17:37;;;;;;;23.70;11.50;;;;;;;;;;5043032;28;20143;-64
2022/10/04 02:20:10;;;;;;;23.80;12.07;;;;;;;;;;5027982;28;20036;-64
2022/10/04 02:22:35;;;;;;;29.98;11.85;;;;;;;;;;5041398;28;20128;-63
2022/10/04 02:25:01;;;;;;;28.45;12.40;;;;;;;;;;5041722;28;20102;-64
2022/10/04 02:27:28;;;;;;;28.52;12.80;;;;;;;;;;5042122;28;20042;-64
2022/10/04 02:29:58;;;;;;;24.98;12.55;;;;;;;;;;5033005;28;20036;-63
2022/10/04 02:35:08;;;;;;;28.55;14.25;;;;;;;;;;5040913;28;20984;-64
2022/10/04 02:37:36;;;;;;;36.33;14.30;;;;;;;;;;5036456;28;20040;-64
2022/10/04 02:40:07;;;;;;;31.00;15.52;;;;;;;;;;5032524;28;20032;-62
2022/10/04 02:42:59;;;;;;;30.17;16.58;;;;;;;;;;5034333;28;20036;-63
2022/10/04 02:45:33;;;;;;;39.20;18.73;;;;;;;;;;4969884;28;20075;-63
2022/10/04 02:48:04;;;;;;;33.42;18.27;;;;;;;;;;5032692;28;20079;-63
2022/10/04 02:50:34;;;;;;;35.05;17.45;;;;;;;;;;5033615;28;21391;-65
2022/10/04 02:53:13;;;;;;;29.85;15.77;;;;;;;;;;5033193;28;20040;-64
2022/10/04 02:55:38;;;;;;;29.85;15.38;;;;;;;;;;5032067;28;20158;-65
2022/10/04 02:58:08;;;;;;;29.45;15.20;;;;;;;;;;5033440;28;20113;-64
2022/10/04 03:00:43;;;;;;;30.58;16.25;;;;;;;;;;5030869;28;21202;-63
2022/10/04 03:03:27;;;;;;;25.13;14.13;;;;;;;;;;5033734;28;20124;-64
2022/10/04 03:05:52;;;;;;;33.28;14.82;;;;;;;;;;5033346;28;20039;-64
2022/10/04 03:08:17;;;;;;;27.92;12.40;;;;;;;;;;5033210;28;20566;-63
2022/10/04 03:10:43;;;;;;;27.67;12.73;;;;;;;;;;5030588;28;20138;-63
2022/10/04 03:13:09;;;;;;;35.67;13.02;;;;;;;;;;5031077;28;20032;-64
2022/10/04 03:15:36;;;;;;;26.42;12.80;;;;;;;;;;5031753;28;20048;-63
2022/10/04 03:18:01;;;;;;;27.13;14.52;;;;;;;;;;5032813;28;20040;-63
2022/10/04 03:20:27;;;;;;;37.30;16.48;;;;;;;;;;5033088;28;20043;-63
2022/10/04 03:22:54;;;;;;;39.85;15.95;;;;;;;;;;5033496;28;20036;-64
2022/10/04 03:25:26;;;;;;;25.55;12.30;;;;;;;;;;5031303;28;20187;-62
2022/10/04 03:27:58;;;;;;;28.20;12.07;;;;;;;;;;5031432;28;20044;-63
2022/10/04 03:30:23;;;;;;;29.75;11.65;;;;;;;;;;5046804;28;20253;-63
2022/10/04 03:32:49;;;;;;;24.50;12.25;;;;;;;;;;5033413;28;20139;-63
2022/10/04 03:35:23;;;;;;;27.30;10.95;;;;;;;;;;5032888;28;20072;-64
2022/10/04 03:37:48;;;;;;;31.35;13.07;;;;;;;;;;5032426;28;20036;-64
2022/10/04 03:40:14;;;;;;;25.67;11.32;;;;;;;;;;5017766;28;20043;-63
2022/10/04 03:42:39;;;;;;;30.35;13.27;;;;;;;;;;5035722;28;20131;-63
2022/10/04 03:45:14;;;;;;;25.45;12.15;;;;;;;;;;5035148;28;20032;-63
2022/10/04 03:47:43;;;;;;;24.35;10.73;;;;;;;;;;5018655;28;20058;-64
2022/10/04 03:50:20;;;;;;;22.77;9.77;;;;;;;;;;5034415;28;21221;-63
2022/10/04 03:52:49;;;;;;;21.70;10.73;;;;;;;;;;5034541;28;20830;-63
2022/10/04 03:55:15;;;;;;;24.77;11.10;;;;;;;;;;5013984;28;20143;-64
2022/10/04 03:57:43;;;;;;;24.65;10.88;;;;;;;;;;5036115;28;20118;-63
2022/10/04 04:00:08;;;;;;;29.08;14.00;;;;;;;;;;5021937;28;20028;-63
2022/10/04 04:02:40;;;;;;;25.02;12.38;;;;;;;;;;5040975;28;20032;-65
2022/10/04 04:05:17;;;;;;;22.05;12.70;;;;;;;;;;5038293;28;20039;-63
2022/10/04 04:07:49;;;;;;;27.30;14.85;;;;;;;;;;5040110;28;20074;-64
2022/10/04 04:10:17;;;;;;;25.95;13.23;;;;;;;;;;5039876;28;20083;-63
2022/10/04 04:12:46;;;;;;;26.40;13.25;;;;;;;;;;5039643;28;20028;-65
2022/10/04 04:15:13;;;;;;;29.40;12.77;;;;;;;;;;5037169;28;20040;-64
2022/10/04 04:17:44;;;;;;;28.30;14.07;;;;;;;;;;5040613;28;20213;-64
2022/10/04 04:20:16;;;;;;;25.10;13.15;;;;;;;;;;5038945;28;20035;-63
2022/10/04 04:22:45;;;;;;;25.55;13.05;;;;;;;;;;5039382;28;20036;-63
2022/10/04 04:25:13;;;;;;;26.75;13.30;;;;;;;;;;5038531;28;20033;-63
2022/10/04 04:27:40;;;;;;;28.58;13.30;;;;;;;;;;5039228;28;20040;-63
2022/10/04 04:30:07;;;;;;;28.73;13.95;;;;;;;;;;5038380;28;20052;-63
2022/10/04 04:32:39;;;;;;;35.05;17.15;;;;;;;;;;5039778;28;20035;-62
2022/10/04 04:35:07;;;;;;;36.20;14.57;;;;;;;;;;5025374;28;20519;-63
2022/10/04 04:37:36;;;;;;;33.40;15.25;;;;;;;;;;5037619;28;21216;-63
2022/10/04 04:40:31;;;;;;;33.92;15.50;;;;;;;;;;5041183;28;20036;-63
2022/10/04 04:42:58;;;;;;;37.22;17.52;;;;;;;;;;5027453;28;20909;-63
2022/10/04 04:45:25;;;;;;;31.90;16.92;;;;;;;;;;5038694;28;20051;-63
2022/10/04 04:47:55;;;;;;;29.02;14.50;;;;;;;;;;5038206;28;20610;-63
2022/10/04 04:50:22;;;;;;;27.17;15.40;;;;;;;;;;5055631;28;20079;-63
2022/10/04 04:52:52;;;;;;;29.42;16.15;;;;;;;;;;5014103;28;20043;-64
2022/10/04 04:55:20;;;;;;;29.55;15.95;;;;;;;;;;5040711;28;20048;-64
2022/10/04 04:57:46;;;;;;;30.88;16.23;;;;;;;;;;5020552;28;20032;-64
2022/10/04 05:00:16;;;;;;;27.98;16.38;;;;;;;;;;5037374;28;20532;-63
2022/10/04 05:02:49;;;;;;;33.50;17.92;;;;;;;;;;5038592;28;20104;-65
2022/10/04 05:05:16;;;;;;;31.90;18.90;;;;;;;;;;5039265;28;20036;-64
2022/10/04 05:07:44;;;;;;;32.25;19.25;;;;;;;;;;5014182;28;20075;-62
2022/10/04 05:10:38;;;;;;;32.55;18.00;;;;;;;;;;5038492;28;20822;-62
2022/10/04 05:13:07;;;;;;;37.03;20.80;;;;;;;;;;5019993;28;20036;-64
2022/10/04 05:15:37;;;;;;;37.65;20.40;;;;;;;;;;5039686;28;20052;-64
2022/10/04 05:18:21;;;;;;;34.00;19.13;;;;;;;;;;5040237;28;20044;-64
2022/10/04 05:20:48;;;;;;;38.53;19.42;;;;;;;;;;5037346;28;20043;-63
2022/10/04 05:23:14;;;;;;;36.65;19.52;;;;;;;;;;5038499;28;20135;-64
2022/10/04 05:25:39;;;;;;;43.53;19.33;;;;;;;;;;5023742;28;20036;-65
2022/10/04 05:28:05;;;;;;;38.40;19.55;;;;;;;;;;5040475;28;20105;-64
2022/10/04 05:30:49;;;;;;;37.28;21.90;;;;;;;;;;5039826;28;20040;-63
2022/10/04 05:33:39;;;;;;;43.95;22.10;;;;;;;;;;5038445;28;20036;-63
2022/10/04 05:36:10;;;;;;;45.22;23.55;;;;;;;;;;5029914;28;20047;-64
2022/10/04 05:38:52;;;;;;;37.97;21.48;;;;;;;;;;5038111;28;20033;-63
2022/10/04 05:41:39;;;;;;;53.83;27.05;;;;;;;;;;5038106;28;20036;-64
2022/10/04 05:44:26;;;;;;;46.20;27.60;;;;;;;;;;5043518;28;20048;-64
2022/10/04 05:47:01;;;;;;;45.40;25.38;;;;;;;;;;5019578;28;20052;-64
2022/10/04 05:49:39;;;;;;;35.38;20.90;;;;;;;;;;5056645;28;20052;-65
2022/10/04 05:52:12;;;;;;;41.28;22.08;;;;;;;;;;5040863;28;20037;-63
2022/10/04 05:54:38;;;;;;;42.53;23.35;;;;;;;;;;5041838;28;20212;-63
2022/10/04 05:57:26;;;;;;;45.47;25.50;;;;;;;;;;5042269;28;20163;-65
2022/10/04 06:00:07;;;;;;;59.75;31.65;;;;;;;;;;5041743;28;20094;-63
2022/10/04 06:02:35;;;;;;;56.87;33.40;;;;;;;;;;5041241;28;20301;-63
2022/10/04 06:05:01;;;;;;;55.05;30.77;;;;;;;;;;5041445;28;20316;-63
2022/10/04 06:07:32;;;;;;;57.85;29.48;;;;;;;;;;5042603;28;20204;-63
2022/10/04 06:10:08;;;;;;;56.42;31.42;;;;;;;;;;5033653;28;20564;-64
2022/10/04 06:12:41;;;;;;;63.65;33.50;;;;;;;;;;5042385;28;20324;-64
2022/10/04 06:15:07;;;;;;;55.03;29.20;;;;;;;;;;5041141;28;20048;-63
2022/10/04 06:17:35;;;;;;;55.72;29.63;;;;;;;;;;5040433;28;20039;-63
2022/10/04 06:20:05;;;;;;;59.30;31.05;;;;;;;;;;5039551;28;20040;-65
2022/10/04 06:22:32;;;;;;;65.18;33.78;;;;;;;;;;5040491;28;20032;-65
2022/10/04 06:25:09;;;;;;;59.90;33.05;;;;;;;;;;5042150;28;20032;-63
2022/10/04 06:27:45;;;;;;;57.80;31.90;;;;;;;;;;5041090;28;20220;-64
2022/10/04 06:30:14;;;;;;;58.08;31.60;;;;;;;;;;5038043;28;20029;-65
2022/10/04 06:33:00;;;;;;;60.20;31.75;;;;;;;;;;5026960;28;20040;-64
2022/10/04 06:35:33;;;;;;;55.15;29.38;;;;;;;;;;5053343;28;20144;-63
2022/10/04 06:38:21;;;;;;;43.92;26.17;;;;;;;;;;5040617;28;20128;-63
2022/10/04 06:40:58;;;;;;;48.17;25.55;;;;;;;;;;5039505;28;20158;-64
2022/10/04 06:43:26;;;;;;;48.13;27.17;;;;;;;;;;5041170;28;20036;-64
2022/10/04 06:46:13;;;;;;;50.65;29.85;;;;;;;;;;5041295;28;20055;-63
2022/10/04 06:49:07;;;;;;;64.10;33.35;;;;;;;;;;5025905;28;20047;-64
2022/10/04 06:51:41;;;;;;;52.28;30.13;;;;;;;;;;5041256;28;20036;-64
2022/10/04 06:54:26;;;;;;;50.05;27.92;;;;;;;;;;5040103;28;20601;-63
2022/10/04 06:56:54;;;;;;;50.25;28.80;;;;;;;;;;5039249;28;20028;-63
2022/10/04 06:59:25;;;;;;;49.55;27.65;;;;;;;;;;5040235;28;20831;-63
2022/10/04 07:01:59;;;;;;;47.50;27.58;;;;;;;;;;5040877;28;20063;-63
2022/10/04 07:04:35;;;;;;;49.00;25.42;;;;;;;;;;5041684;28;20024;-64
2022/10/04 07:09:58;;;;;;;49.25;26.05;;;;;;;;;;5036705;28;20028;-65
2022/10/04 07:12:24;;;;;;;50.95;27.33;;;;;;;;;;5037162;28;20378;-64
2022/10/04 07:14:52;;;;;;;52.20;26.50;;;;;;;;;;5037596;28;20040;-64
2022/10/04 07:17:22;;;;;;;42.90;24.52;;;;;;;;;;5037345;28;20093;-64
2022/10/04 07:19:49;;;;;;;44.53;25.10;;;;;;;;;;5036450;28;20540;-64
2022/10/04 07:22:34;;;;;;;40.20;22.63;;;;;;;;;;5037163;28;20033;-64
2022/10/04 07:25:02;;;;;;;49.28;25.27;;;;;;;;;;5036908;28;20033;-64
2022/10/04 07:27:35;;;;;;;40.50;24.58;;;;;;;;;;5037572;28;20040;-64
2022/10/04 07:30:04;;;;;;;45.78;22.52;;;;;;;;;;5036593;28;20038;-64
2022/10/04 07:32:42;;;;;;;42.13;20.27;;;;;;;;;;5037147;28;20032;-64
2022/10/04 07:35:08;;;;;;;38.60;21.55;;;;;;;;;;5035547;28;20052;-63
2022/10/04 07:37:36;;;;;;;35.65;20.48;;;;;;;;;;5037447;28;20109;-63
2022/10/04 07:40:08;;;;;;;40.58;22.25;;;;;;;;;;5035555;28;20565;-63
2022/10/04 07:42:44;;;;;;;34.65;21.45;;;;;;;;;;5035035;28;20772;-64
2022/10/04 07:45:14;;;;;;;32.60;21.00;;;;;;;;;;5035641;28;20036;-64
2022/10/04 07:47:40;;;;;;;31.10;19.80;;;;;;;;;;5034189;28;20448;-64
2022/10/04 07:50:35;;;;;;;34.72;18.70;;;;;;;;;;5051495;28;20032;-64
2022/10/04 07:53:07;;;;;;;33.15;17.77;;;;;;;;;;5045457;28;20040;-64
2022/10/04 07:55:38;;;;;;;30.15;17.92;;;;;;;;;;5035478;28;20595;-64
2022/10/04 07:58:15;;;;;;;27.17;17.90;;;;;;;;;;5036559;28;20155;-63
2022/10/04 08:01:00;;;;;;;29.52;19.25;;;;;;;;;;5051580;28;20424;-64
2022/10/04 08:03:38;;;;;;;29.83;18.98;;;;;;;;;;5035596;28;20283;-63
2022/10/04 08:06:15;;;;;;;32.22;19.33;;;;;;;;;;5035191;28;20072;-64
2022/10/04 08:08:43;;;;;;;28.27;18.52;;;;;;;;;;5034620;28;20170;-64
2022/10/04 08:11:17;;;;;;;28.60;18.98;;;;;;;;;;5020312;28;20036;-60
2022/10/04 08:14:01;;;;;;;32.67;17.77;;;;;;;;;;5035499;28;20540;-62
2022/10/04 08:16:32;;;;;;;35.90;18.30;;;;;;;;;;5033303;28;20408;-62
2022/10/04 08:19:05;;;;;;;34.45;18.88;;;;;;;;;;5030214;28;20032;-61
2022/10/04 08:21:35;;;;;;;29.73;18.13;;;;;;;;;;5031862;28;20474;-62
2022/10/04 08:24:13;;;;;;;31.67;18.65;;;;;;;;;;5049152;28;20280;-61
2022/10/04 08:26:57;;;;;;;35.03;22.20;;;;;;;;;;5032112;28;20032;-62
2022/10/04 08:29:44;;;;;;;33.38;19.58;;;;;;;;;;5033886;28;20090;-62
2022/10/04 08:32:29;;;;;;;32.22;19.95;;;;;;;;;;5018069;28;20540;-62
2022/10/04 08:35:15;;;;;;;33.58;19.23;;;;;;;;;;5033731;28;20048;-63
2022/10/04 08:37:40;;;;;;;29.00;18.98;;;;;;;;;;5032975;28;20040;-62
2022/10/04 08:40:25;;;;;;;33.50;19.95;;;;;;;;;;5038353;28;20052;-62
2022/10/04 08:42:53;;;;;;;30.60;19.30;;;;;;;;;;5037327;28;20036;-62
2022/10/04 08:45:46;;;;;;;31.48;20.95;;;;;;;;;;5038832;28;20838;-63
2022/10/04 08:48:21;;;;;;;25.42;16.55;;;;;;;;;;5039051;28;20059;-63
2022/10/04 08:51:01;;;;;;;25.70;17.38;;;;;;;;;;5014167;28;20807;-63
2022/10/04 08:53:36;;;;;;;26.50;16.52;;;;;;;;;;5038874;28;20035;-62
2022/10/04 08:56:01;;;;;;;22.33;14.60;;;;;;;;;;5013463;28;21088;-61
2022/10/04 08:58:29;;;;;;;24.60;15.57;;;;;;;;;;5039889;28;20029;-61
2022/10/04 09:00:57;;;;;;;25.20;14.70;;;;;;;;;;5038420;28;20040;-62
2022/10/04 09:03:41;;;;;;;25.70;15.55;;;;;;;;;;5039334;28;20040;-63
2022/10/04 09:06:22;;;;;;;22.83;15.60;;;;;;;;;;5036873;28;20055;-63
2022/10/04 09:08:59;;;;;;;23.08;14.60;;;;;;;;;;5038736;28;20162;-62
2022/10/04 09:11:28;;;;;;;26.20;15.68;;;;;;;;;;5036878;28;20035;-63
2022/10/04 09:14:13;;;;;;;26.60;15.68;;;;;;;;;;5036845;28;20155;-62
2022/10/04 09:16:46;;;;;;;23.98;14.18;;;;;;;;;;5039851;28;20036;-62
2022/10/04 09:19:24;;;;;;;21.58;15.82;;;;;;;;;;5042018;28;20025;-63
2022/10/04 09:21:55;;;;;;;22.30;13.80;;;;;;;;;;5039118;28;20043;-62
2022/10/04 09:24:42;;;;;;;24.75;13.70;;;;;;;;;;5042083;28;20851;-62
2022/10/04 09:27:26;;;;;;;25.05;14.02;;;;;;;;;;5018330;28;20039;-62
2022/10/04 09:30:01;;;;;;;20.10;12.88;;;;;;;;;;5040534;28;20032;-62
2022/10/04 09:32:29;;;;;;;20.10;13.10;;;;;;;;;;5055410;28;20033;-62
2022/10/04 09:34:57;;;;;;;20.40;12.93;;;;;;;;;;5041153;28;20044;-62
2022/10/04 09:37:46;;;;;;;19.10;11.20;;;;;;;;;;5043035;28;20039;-63
2022/10/04 09:40:27;;;;;;;29.40;12.18;;;;;;;;;;5029328;28;20029;-62
2022/10/04 09:43:11;;;;;;;15.52;8.73;;;;;;;;;;5042487;28;20036;-62
2022/10/04 09:45:42;;;;;;;14.15;9.35;;;;;;;;;;5040228;28;20714;-61
2022/10/04 09:48:24;;;;;;;21.45;9.18;;;;;;;;;;5016253;28;20416;-61
2022/10/04 09:50:52;;;;;;;17.88;8.35;;;;;;;;;;5029680;28;20826;-61
2022/10/04 09:53:20;;;;;;;18.70;9.82;;;;;;;;;;5040414;28;20040;-61
2022/10/04 09:55:57;;;;;;;12.48;8.57;;;;;;;;;;5039797;28;20040;-61
2022/10/04 09:58:33;;;;;;;17.48;9.85;;;;;;;;;;5040127;28;20123;-62
2022/10/04 10:01:05;;;;;;;12.55;8.20;;;;;;;;;;5042468;28;20029;-61
2022/10/04 10:03:49;;;;;;;20.38;9.68;;;;;;;;;;5042131;28;20047;-63
2022/10/04 10:06:22;;;;;;;14.95;8.50;;;;;;;;;;5046170;28;20043;-64
2022/10/04 10:09:06;;;;;;;17.15;7.78;;;;;;;;;;5042781;28;20048;-65
2022/10/04 10:14:44;;;;;;;17.98;10.23;;;;;;;;;;5043904;28;20093;-63
2022/10/04 10:17:14;;;;;;;14.32;8.63;;;;;;;;;;5022008;28;20036;-64
2022/10/04 10:19:52;;;;;;;12.50;7.18;;;;;;;;;;5040476;28;20028;-63
2022/10/04 10:22:17;;;;;;;13.40;8.38;;;;;;;;;;5044977;28;20029;-65
2022/10/04 10:25:01;;;;;;;15.98;9.23;;;;;;;;;;5047932;28;21721;-63
2022/10/04 10:27:30;;;;;;;12.65;8.65;;;;;;;;;;5045097;28;20569;-63
2022/10/04 10:29:58;;;;;;;14.98;7.85;;;;;;;;;;5046728;28;20155;-65
2022/10/04 10:32:39;;;;;;;16.90;9.30;;;;;;;;;;5038728;28;20060;-64
2022/10/04 10:35:13;;;;;;;15.20;8.32;;;;;;;;;;5043118;28;20048;-64
2022/10/04 10:37:45;;;;;;;17.27;8.80;;;;;;;;;;5043757;28;20951;-64
2022/10/04 10:40:28;;;;;;;17.25;10.20;;;;;;;;;;5047020;28;20028;-65
2022/10/04 10:42:54;;;;;;;18.33;9.20;;;;;;;;;;5044861;28;20123;-64
2022/10/04 10:45:34;;;;;;;19.58;10.48;;;;;;;;;;5047411;28;20036;-63
2022/10/04 10:48:00;;;;;;;15.47;7.43;;;;;;;;;;5044232;28;21114;-64
2022/10/04 10:51:07;;;;;;;22.23;9.80;;;;;;;;;;5043701;28;20040;-64
2022/10/04 10:53:41;;;;;;;14.55;6.65;;;;;;;;;;5043263;28;20579;-64
2022/10/04 10:56:11;;;;;;;19.27;7.95;;;;;;;;;;5044792;28;20586;-64
2022/10/04 10:58:37;;;;;;;16.48;7.65;;;;;;;;;;5040599;28;20541;-63
2022/10/04 11:01:14;;;;;;;14.75;6.25;;;;;;;;;;5039835;28;20060;-64
2022/10/04 11:03:52;;;;;;;12.13;5.82;;;;;;;;;;5040201;28;20170;-64
2022/10/04 11:06:37;;;;;;;16.67;7.28;;;;;;;;;;5036601;28;20569;-64
2022/10/04 11:09:21;;;;;;;16.02;7.90;;;;;;;;;;5033375;28;20037;-64
2022/10/04 11:12:12;;;;;;;10.05;5.82;;;;;;;;;;5038185;28;20242;-63
2022/10/04 11:14:50;;;;;;;10.57;5.53;;;;;;;;;;5041648;28;20047;-64
2022/10/04 11:17:34;;;;;;;17.23;6.05;;;;;;;;;;5038557;28;20058;-62
2022/10/04 11:20:04;;;;;;;13.52;5.70;;;;;;;;;;5036589;28;20074;-62
2022/10/04 11:22:48;;;;;;;12.77;4.60;;;;;;;;;;5037032;28;22014;-62
2022/10/04 11:25:23;;;;;;;9.93;5.45;;;;;;;;;;5035873;28;20032;-63
2022/10/04 11:27:54;;;;;;;9.27;5.40;;;;;;;;;;5036570;28;20032;-62
2022/10/04 11:30:22;;;;;;;12.15;6.40;;;;;;;;;;5018020;28;20718;-63
2022/10/04 11:32:58;;;;;;;9.73;6.70;;;;;;;;;;5038481;28;20272;-61
2022/10/04 11:35:39;;;;;;;11.80;6.60;;;;;;;;;;5036593;28;20224;-62
2022/10/04 11:38:25;;;;;;;14.32;6.10;;;;;;;;;;5010054;28;20042;-61
2022/10/04 11:41:10;;;;;;;11.98;6.88;;;;;;;;;;5021443;28;20033;-62
2022/10/04 11:43:35;;;;;;;10.43;5.63;;;;;;;;;;5017221;28;20040;-61
2022/10/04 11:46:23;;;;;;;13.43;6.72;;;;;;;;;;5034534;28;20916;-62
2022/10/04 11:48:54;;;;;;;14.10;7.15;;;;;;;;;;5034250;28;20077;-62
2022/10/04 11:51:36;;;;;;;10.00;5.73;;;;;;;;;;5035827;28;20036;-62
2022/10/04 11:54:11;;;;;;;9.65;5.35;;;;;;;;;;5037042;28;20043;-63
2022/10/04 11:56:49;;;;;;;7.85;6.28;;;;;;;;;;5035485;28;20085;-61
2022/10/04 11:59:26;;;;;;;11.52;6.22;;;;;;;;;;5035683;28;20036;-61
2022/10/04 12:02:01;;;;;;;9.57;4.80;;;;;;;;;;5033777;28;20138;-61
2022/10/04 12:04:44;;;;;;;14.50;6.57;;;;;;;;;;5035596;28;21747;-62
2022/10/04 12:07:25;;;;;;;12.93;7.50;;;;;;;;;;5035336;28;20734;-61
2022/10/04 12:09:53;;;;;;;11.63;6.57;;;;;;;;;;5033319;28;20105;-62
2022/10/04 12:12:54;;;;;;;11.82;6.30;;;;;;;;;;5010014;28;20036;-61
2022/10/04 12:15:39;;;;;;;14.38;6.53;;;;;;;;;;4982961;28;20632;-62
2022/10/04 12:18:25;;;;;;;11.40;6.40;;;;;;;;;;5017956;28;20130;-63
2022/10/04 12:21:00;;;;;;;15.27;7.70;;;;;;;;;;5036851;28;20126;-62
2022/10/04 12:23:34;;;;;;;17.88;7.63;;;;;;;;;;5037908;28;20047;-62
2022/10/04 12:26:04;;;;;;;15.18;6.72;;;;;;;;;;5038159;28;20035;-65
2022/10/04 12:28:48;;;;;;;12.00;6.40;;;;;;;;;;5036587;28;20155;-63
2022/10/04 12:31:28;;;;;;;10.70;5.68;;;;;;;;;;5035183;28;20139;-63
2022/10/04 12:33:53;;;;;;;11.13;5.93;;;;;;;;;;5032028;28;21518;-63
2022/10/04 12:36:35;;;;;;;13.95;5.80;;;;;;;;;;5031730;28;20055;-64
2022/10/04 12:39:00;;;;;;;13.40;5.47;;;;;;;;;;5032161;28;20043;-64
2022/10/04 12:41:32;;;;;;;12.10;6.28;;;;;;;;;;5016141;28;20116;-65
2022/10/04 12:43:57;;;;;;;13.13;7.75;;;;;;;;;;5034432;28;20521;-64
2022/10/04 12:46:28;;;;;;;14.40;6.93;;;;;;;;;;5033436;28;20040;-64
2022/10/04 12:49:08;;;;;;;14.30;6.80;;;;;;;;;;5033018;28;20044;-63
2022/10/04 12:51:34;;;;;;;16.25;6.35;;;;;;;;;;5034645;28;20737;-63
2022/10/04 12:54:18;;;;;;;12.52;6.38;;;;;;;;;;5035627;28;20442;-64
2022/10/04 12:56:52;;;;;;;12.43;6.68;;;;;;;;;;5034617;28;20433;-64
2022/10/04 12:59:41;;;;;;;15.05;7.70;;;;;;;;;;5033481;28;20294;-64
2022/10/04 13:02:20;;;;;;;10.43;5.95;;;;;;;;;;5032675;28;20032;-63
2022/10/04 13:04:45;;;;;;;12.65;7.03;;;;;;;;;;5033507;28;20606;-63
2022/10/04 13:07:43;;;;;;;16.13;8.68;;;;;;;;;;5032471;28;20036;-63
2022/10/04 13:10:17;;;;;;;15.52;8.00;;;;;;;;;;4974205;28;20123;-64
2022/10/04 13:13:02;;;;;;;15.75;9.10;;;;;;;;;;5019479;28;20536;-63
2022/10/04 13:15:33;;;;;;;14.43;9.43;;;;;;;;;;5042506;28;20123;-65
2022/10/04 13:18:01;;;;;;;13.93;8.27;;;;;;;;;;5042705;28;20302;-64
2022/10/04 13:20:48;;;;;;;16.80;9.07;;;;;;;;;;5038391;28;20880;-63
2022/10/04 13:23:34;;;;;;;20.17;9.35;;;;;;;;;;5019084;28;20251;-64
2022/10/04 13:25:59;;;;;;;14.23;9.15;;;;;;;;;;5036187;28;20032;-63
2022/10/04 13:28:30;;;;;;;14.98;9.48;;;;;;;;;;5036721;28;20448;-65
2022/10/04 13:31:05;;;;;;;21.40;11.05;;;;;;;;;;5036390;28;20089;-64
2022/10/04 13:33:49;;;;;;;14.93;8.80;;;;;;;;;;5027070;28;20150;-65
2022/10/04 13:36:26;;;;;;;15.00;10.82;;;;;;;;;;5031705;28;20102;-62
2022/10/04 13:38:51;;;;;;;12.73;7.82;;;;;;;;;;5024661;28;20043;-62
2022/10/04 13:41:27;;;;;;;13.93;8.63;;;;;;;;;;5032492;28;20266;-61
2022/10/04 13:44:16;;;;;;;16.98;8.20;;;;;;;;;;5032818;28;20040;-60
2022/10/04 13:46:57;;;;;;;14.25;8.77;;;;;;;;;;5030884;28;20503;-61
2022/10/04 13:49:41;;;;;;;14.75;8.48;;;;;;;;;;5033832;28;20127;-61
2022/10/04 13:58:28;;;;;;;13.85;7.45;;;;;;;;;;5035214;28;20036;-62
2022/10/04 14:00:59;;;;;;;12.52;7.30;;;;;;;;;;4987949;28;20049;-62
2022/10/04 14:03:31;;;;;;;14.90;6.07;;;;;;;;;;5035723;28;20134;-61
2022/10/04 14:05:56;;;;;;;12.93;5.97;;;;;;;;;;5038144;28;20131;-62
2022/10/04 14:08:40;;;;;;;7.63;5.90;;;;;;;;;;5037455;28;20032;-61
2022/10/04 14:11:26;;;;;;;13.30;6.60;;;;;;;;;;5037785;28;20055;-62
2022/10/04 14:13:56;;;;;;;14.93;7.35;;;;;;;;;;5035991;28;20675;-62
2022/10/04 14:16:33;;;;;;;16.30;8.52;;;;;;;;;;5035412;28;21869;-62
2022/10/04 14:19:05;;;;;;;16.90;8.00;;;;;;;;;;5035188;28;20602;-61
2022/10/04 14:21:43;;;;;;;15.68;8.60;;;;;;;;;;5036086;28;20033;-63
2022/10/04 14:24:15;;;;;;;14.48;7.47;;;;;;;;;;5038150;28;20129;-62
2022/10/04 14:26:43;;;;;;;14.38;8.80;;;;;;;;;;5036643;28;20029;-62
2022/10/04 14:29:17;;;;;;;17.73;10.20;;;;;;;;;;5035649;28;20032;-61
2022/10/04 14:31:55;;;;;;;12.90;7.30;;;;;;;;;;5035388;28;20271;-61
2022/10/04 14:34:39;;;;;;;16.35;8.07;;;;;;;;;;5032906;28;20356;-63
2022/10/04 14:37:24;;;;;;;12.52;6.32;;;;;;;;;;5035510;28;20732;-62
2022/10/04 14:40:02;;;;;;;11.80;5.30;;;;;;;;;;5040784;28;20036;-61
2022/10/04 14:42:30;;;;;;;13.10;5.75;;;;;;;;;;5041087;28;20113;-61
2022/10/04 14:45:03;;;;;;;10.63;5.55;;;;;;;;;;5035903;28;20039;-61
2022/10/04 14:47:41;;;;;;;10.57;5.93;;;;;;;;;;5038319;28;21034;-61
2022/10/04 14:50:20;;;;;;;10.38;6.35;;;;;;;;;;5036972;28;20039;-61
2022/10/04 14:52:45;;;;;;;13.30;6.28;;;;;;;;;;5041234;28;20039;-61
2022/10/04 14:55:30;;;;;;;9.85;6.25;;;;;;;;;;5038745;28;21241;-61
2022/10/04 14:57:55;;;;;;;12.38;6.25;;;;;;;;;;5040000;28;20962;-60
2022/10/04 15:00:22;;;;;;;15.40;8.45;;;;;;;;;;5040042;28;20092;-61
2022/10/04 15:03:03;;;;;;;11.27;7.18;;;;;;;;;;5040889;28;20037;-62
2022/10/04 15:05:34;;;;;;;12.00;7.15;;;;;;;;;;5038414;28;20160;-62
2022/10/04 15:08:13;;;;;;;15.48;6.85;;;;;;;;;;5036735;28;20036;-62
2022/10/04 15:10:49;;;;;;;17.77;8.52;;;;;;;;;;5055000;28;20062;-61
2022/10/04 15:13:20;;;;;;;17.67;9.15;;;;;;;;;;5035706;28;20155;-61
2022/10/04 15:16:04;;;;;;;19.17;6.82;;;;;;;;;;5036220;28;20812;-60